Observation data for Amherst on 12/09/2018      Previous  Date       Current Mesonet Observations  Soil Data  Daily Summary Page  Observations in Plain Language
KAMH 090600Z 26008KT M06/M06 A3028 RMK A01 T10551062  RH  095%=      5-min Rain = 0
KAMH 090605Z 26008KT M06/M06 A3028 RMK A01 T10551063  RH  095%=      5-min Rain = 0
KAMH 090610Z 26008KT M06/M07 A3028 RMK A01 T10581065  RH  094%=      5-min Rain = 0
KAMH 090615Z 26007KT M06/M06 A3028 RMK A01 T10561063  RH  095%=      5-min Rain = 0
KAMH 090620Z 26007KT M05/M06 A3028 RMK A01 T10541060  RH  096%=      5-min Rain = 0
KAMH 090625Z 26007KT M05/M06 A3028 RMK A01 T10531060  RH  095%=      5-min Rain = 0
KAMH 090630Z 25007KT M05/M06 A3028 RMK A01 T10541061  RH  095%=      5-min Rain = 0
KAMH 090635Z 25007KT M05/M06 A3028 RMK A01 T10521059  RH  095%=      5-min Rain = 0
KAMH 090640Z 25007KT M05/M06 A3028 RMK A01 T10511059  RH  095%=      5-min Rain = 0
KAMH 090645Z 26007KT M05/M06 A3028 RMK A01 T10511059  RH  095%=      5-min Rain = 0
KAMH 090650Z 28005KT M06/M07 A3028 RMK A01 T10601070  RH  092%=      5-min Rain = 0
KAMH 090655Z 28005KT M06/M07 A3028 RMK A01 T10631071  RH  094%=      5-min Rain = 0
KAMH 090700Z 29005KT M07/M07 A3028 RMK A01 T10661074  RH  094%=      5-min Rain = 0
KAMH 090705Z 28005KT M07/M07 A3028 RMK A01 T10671074  RH  095%=      5-min Rain = 0
KAMH 090710Z 29004KT M07/M08 A3028 RMK A01 T10691076  RH  094%=      5-min Rain = 0
KAMH 090715Z 32004KT M07/M08 A3028 RMK A01 T10711078  RH  094%=      5-min Rain = 0
KAMH 090720Z 33003KT M07/M08 A3028 RMK A01 T10741081  RH  094%=      5-min Rain = 0
KAMH 090725Z 34003KT M08/M09 A3028 RMK A01 T10781086  RH  094%=      5-min Rain = 0
KAMH 090730Z 33003KT M08/M09 A3028 RMK A01 T10801088  RH  094%=      5-min Rain = 0
KAMH 090735Z 34003KT M08/M09 A3028 RMK A01 T10831091  RH  094%=      5-min Rain = 0
KAMH 090740Z 34003KT M09/M09 A3027 RMK A01 T10851093  RH  094%=      5-min Rain = 0
KAMH 090745Z 33004KT M08/M09 A3027 RMK A01 T10841092  RH  094%=      5-min Rain = 0
KAMH 090750Z 32004KT M08/M09 A3027 RMK A01 T10841091  RH  094%=      5-min Rain = 0
KAMH 090755Z 32005KT M08/M09 A3028 RMK A01 T10841091  RH  095%=      5-min Rain = 0
KAMH 090800Z 33005KT M08/M09 A3028 RMK A01 T10841090  RH  095%=      5-min Rain = 0
KAMH 090805Z 33005KT M08/M09 A3028 RMK A01 T10831090  RH  094%=      5-min Rain = 0
KAMH 090810Z 33005KT M08/M09 A3028 RMK A01 T10821089  RH  094%=      5-min Rain = 0
KAMH 090815Z 33005KT M08/M09 A3028 RMK A01 T10821089  RH  094%=      5-min Rain = 0
KAMH 090820Z 33005KT M08/M09 A3028 RMK A01 T10821090  RH  094%=      5-min Rain = 0
KAMH 090825Z 33005KT M08/M09 A3028 RMK A01 T10821090  RH  094%=      5-min Rain = 0
KAMH 090830Z 34005KT M08/M09 A3028 RMK A01 T10841093  RH  094%=      5-min Rain = 0
KAMH 090835Z 32004KT M09/M09 A3028 RMK A01 T10851094  RH  093%=      5-min Rain = 0
KAMH 090840Z 32005KT M08/M09 A3028 RMK A01 T10841092  RH  094%=      5-min Rain = 0
KAMH 090845Z 31005KT M09/M09 A3028 RMK A01 T10851093  RH  094%=      5-min Rain = 0
KAMH 090850Z 32006KT M09/M09 A3028 RMK A01 T10861094  RH  094%=      5-min Rain = 0
KAMH 090855Z 31006KT M08/M09 A3028 RMK A01 T10841091  RH  095%=      5-min Rain = 0
KAMH 090900Z 32006KT M08/M09 A3028 RMK A01 T10811087  RH  095%=      5-min Rain = 0
KAMH 090905Z 31005KT M08/M08 A3028 RMK A01 T10781084  RH  095%=      5-min Rain = 0
KAMH 090910Z 33006KT M08/M09 A3027 RMK A01 T10781085  RH  095%=      5-min Rain = 0
KAMH 090915Z 33008KT M08/M09 A3028 RMK A01 T10811089  RH  094%=      5-min Rain = 0
KAMH 090920Z 33008KT M08/M09 A3028 RMK A01 T10821089  RH  094%=      5-min Rain = 0
KAMH 090925Z 33009KT M08/M09 A3028 RMK A01 T10841091  RH  094%=      5-min Rain = 0
KAMH 090930Z 33009KT M08/M09 A3028 RMK A01 T10841092  RH  094%=      5-min Rain = 0
KAMH 090935Z 33009KT M09/M10 A3028 RMK A01 T10871095  RH  094%=      5-min Rain = 0
KAMH 090940Z 33009KT M09/M10 A3028 RMK A01 T10881095  RH  094%=      5-min Rain = 0
KAMH 090945Z 33009KT M09/M09 A3028 RMK A01 T10861093  RH  094%=      5-min Rain = 0
KAMH 090950Z 33009KT M08/M09 A3028 RMK A01 T10841091  RH  095%=      5-min Rain = 0
KAMH 090955Z 33010KT M08/M09 A3028 RMK A01 T10831091  RH  094%=      5-min Rain = 0
KAMH 091000Z 33009KT M08/M09 A3028 RMK A01 T10831090  RH  094%=      5-min Rain = 0
KAMH 091005Z 33009KT M08/M09 A3028 RMK A01 T10821089  RH  094%=      5-min Rain = 0
KAMH 091010Z 33009KT M08/M09 A3028 RMK A01 T10811089  RH  094%=      5-min Rain = 0
KAMH 091015Z 33008KT M08/M09 A3028 RMK A01 T10831091  RH  094%=      5-min Rain = 0
KAMH 091020Z 33009KT M08/M09 A3028 RMK A01 T10831092  RH  094%=      5-min Rain = 0
KAMH 091025Z 33008KT M08/M09 A3028 RMK A01 T10811088  RH  094%=      5-min Rain = 0
KAMH 091030Z 32009KT M08/M09 A3028 RMK A01 T10801087  RH  094%=      5-min Rain = 0
KAMH 091035Z 32009KT M08/M08 A3028 RMK A01 T10781084  RH  095%=      5-min Rain = 0
KAMH 091040Z 32009KT M08/M08 A3028 RMK A01 T10781083  RH  096%=      5-min Rain = 0
KAMH 091045Z 32007KT M08/M09 A3028 RMK A01 T10811087  RH  095%=      5-min Rain = 0
KAMH 091050Z 32007KT M09/M10 A3028 RMK A01 T10871096  RH  093%=      5-min Rain = 0
KAMH 091055Z 32007KT M09/M10 A3028 RMK A01 T10871095  RH  094%=      5-min Rain = 0
KAMH 091100Z 32008KT M09/M10 A3028 RMK A01 T10881096  RH  093%=      5-min Rain = 0
KAMH 091105Z 33008KT M09/M10 A3028 RMK A01 T10871095  RH  094%=      5-min Rain = 0
KAMH 091110Z 33009KT M08/M09 A3028 RMK A01 T10821088  RH  095%=      5-min Rain = 0
KAMH 091115Z 33009KT M08/M08 A3028 RMK A01 T10781083  RH  096%=      5-min Rain = 0
KAMH 091120Z 33008KT M08/M08 A3028 RMK A01 T10771084  RH  095%=      5-min Rain = 0
KAMH 091125Z 33008KT M08/M09 A3028 RMK A01 T10781086  RH  094%=      5-min Rain = 0
KAMH 091130Z 32006KT M08/M09 A3028 RMK A01 T10791086  RH  094%=      5-min Rain = 0
KAMH 091135Z 31006KT M08/M09 A3028 RMK A01 T10821091  RH  093%=      5-min Rain = 0
KAMH 091140Z 31006KT M08/M09 A3028 RMK A01 T10831092  RH  093%=      5-min Rain = 0
KAMH 091145Z 31006KT M09/M09 A3028 RMK A01 T10851093  RH  094%=      5-min Rain = 0
KAMH 091150Z 31006KT M09/M09 A3029 RMK A01 T10851092  RH  094%=      5-min Rain = 0
KAMH 091155Z 30007KT M09/M10 A3029 RMK A01 T10871095  RH  094%=      5-min Rain = 0
KAMH 091200Z 31007KT M09/M10 A3029 RMK A01 T10871095  RH  094%=      5-min Rain = 0
KAMH 091205Z 31007KT M09/M09 A3029 RMK A01 T10871094  RH  094%=      5-min Rain = 0
KAMH 091210Z 31007KT M09/M09 A3029 RMK A01 T10871094  RH  094%=      5-min Rain = 0
KAMH 091215Z 31008KT M09/M10 A3029 RMK A01 T10881096  RH  093%=      5-min Rain = 0
KAMH 091220Z 31008KT M09/M10 A3029 RMK A01 T10891097  RH  093%=      5-min Rain = 0
KAMH 091225Z 31007KT M09/M10 A3029 RMK A01 T10911100  RH  093%=      5-min Rain = 0
KAMH 091230Z 31008KT M09/M10 A3029 RMK A01 T10881096  RH  094%=      5-min Rain = 0
KAMH 091235Z 31008KT M08/M09 A3029 RMK A01 T10841091  RH  094%=      5-min Rain = 0
KAMH 091240Z 31008KT M08/M09 A303 RMK A01 T10811089  RH  094%=      5-min Rain = 0
KAMH 091245Z 32008KT M08/M09 A303 RMK A01 T10821091  RH  094%=      5-min Rain = 0
KAMH 091250Z 32008KT M08/M09 A303 RMK A01 T10811089  RH  094%=      5-min Rain = 0
KAMH 091255Z 31007KT M08/M09 A303 RMK A01 T10801088  RH  094%=      5-min Rain = 0
KAMH 091300Z 31007KT M08/M09 A3031 RMK A01 T10811090  RH  093%=      5-min Rain = 0
KAMH 091305Z 31008KT M08/M09 A3031 RMK A01 T10841093  RH  093%=      5-min Rain = 0
KAMH 091310Z 32007KT M09/M09 A3031 RMK A01 T10851094  RH  093%=      5-min Rain = 0
KAMH 091315Z 31008KT M09/M10 A3032 RMK A01 T10861095  RH  093%=      5-min Rain = 0
KAMH 091320Z 31008KT M09/M09 A3032 RMK A01 T10851094  RH  093%=      5-min Rain = 0
KAMH 091325Z 32008KT M09/M09 A3032 RMK A01 T10851094  RH  093%=      5-min Rain = 0
KAMH 091330Z 32007KT M08/M09 A3032 RMK A01 T10821090  RH  094%=      5-min Rain = 0
KAMH 091335Z 32006KT M08/M09 A3032 RMK A01 T10801088  RH  094%=      5-min Rain = 0
KAMH 091340Z 31004KT M08/M09 A3033 RMK A01 T10791087  RH  094%=      5-min Rain = 0
KAMH 091345Z 31005KT M08/M09 A3033 RMK A01 T10771085  RH  094%=      5-min Rain = 0
KAMH 091350Z 31005KT M08/M08 A3033 RMK A01 T10761084  RH  093%=      5-min Rain = 0
KAMH 091355Z 32004KT M07/M08 A3033 RMK A01 T10741082  RH  093%=      5-min Rain = 0
KAMH 091400Z 33004KT M07/M08 A3033 RMK A01 T10711079  RH  094%=      5-min Rain = 0
KAMH 091405Z 33003KT M07/M08 A3033 RMK A01 T10681077  RH  094%=      5-min Rain = 0
KAMH 091410Z 32002KT M07/M07 A3033 RMK A01 T10651073  RH  094%=      5-min Rain = 0
KAMH 091415Z 33004KT M06/M07 A3034 RMK A01 T10641073  RH  094%=      5-min Rain = 0
KAMH 091420Z 32007KT M06/M07 A3034 RMK A01 T10641073  RH  093%=      5-min Rain = 0
KAMH 091425Z 33008KT M06/M07 A3034 RMK A01 T10631072  RH  093%=      5-min Rain = 0
KAMH 091430Z 33007KT M06/M07 A3034 RMK A01 T10621072  RH  093%=      5-min Rain = 0
KAMH 091435Z 34007KT M06/M08 A3034 RMK A01 T10641075  RH  092%=      5-min Rain = 0
KAMH 091440Z 33008KT M07/M08 A3035 RMK A01 T10661076  RH  092%=      5-min Rain = 0
KAMH 091445Z 33007KT M06/M07 A3035 RMK A01 T10641074  RH  093%=      5-min Rain = 0
KAMH 091450Z 33007KT M06/M07 A3035 RMK A01 T10611071  RH  093%=      5-min Rain = 0
KAMH 091455Z 33007KT M06/M07 A3035 RMK A01 T10601069  RH  093%=      5-min Rain = 0
KAMH 091500Z 33006KT M06/M07 A3036 RMK A01 T10571067  RH  093%=      5-min Rain = 0
KAMH 091505Z 33006KT M05/M06 A3036 RMK A01 T10541063  RH  093%=      5-min Rain = 0
KAMH 091510Z 31005KT M05/M06 A3036 RMK A01 T10501060  RH  093%=      5-min Rain = 0
KAMH 091515Z 29005KT M05/M06 A3036 RMK A01 T10481057  RH  093%=      5-min Rain = 0
KAMH 091520Z 30004KT M05/M06 A3036 RMK A01 T10471057  RH  093%=      5-min Rain = 0
KAMH 091525Z 31004KT M05/M06 A3037 RMK A01 T10481059  RH  092%=      5-min Rain = 0
KAMH 091530Z 32004KT M05/M06 A3037 RMK A01 T10471057  RH  093%=      5-min Rain = 0
KAMH 091535Z 31004KT M04/M05 A3036 RMK A01 T10431053  RH  093%=      5-min Rain = 0
KAMH 091540Z 30003KT M04/M05 A3036 RMK A01 T10391049  RH  093%=      5-min Rain = 0
KAMH 091545Z 30003KT M04/M05 A3036 RMK A01 T10371047  RH  093%=      5-min Rain = 0
KAMH 091550Z 30003KT M04/M05 A3037 RMK A01 T10361047  RH  093%=      5-min Rain = 0
KAMH 091555Z 28003KT M03/M04 A3037 RMK A01 T10331043  RH  093%=      5-min Rain = 0
KAMH 091600Z 29003KT M03/M04 A3037 RMK A01 T10311041  RH  093%=      5-min Rain = 0
KAMH 091605Z 30004KT M03/M04 A3037 RMK A01 T10291040  RH  092%=      5-min Rain = 0
KAMH 091610Z 30004KT M03/M04 A3038 RMK A01 T10281040  RH  092%=      5-min Rain = 0
KAMH 091615Z 30004KT M02/M04 A3038 RMK A01 T10231035  RH  092%=      5-min Rain = 0
KAMH 091620Z 30004KT M02/M04 A3038 RMK A01 T10221035  RH  091%=      5-min Rain = 0
KAMH 091625Z 30004KT M02/M03 A3038 RMK A01 T10191033  RH  091%=      5-min Rain = 0
KAMH 091630Z 30003KT M02/M03 A3038 RMK A01 T10151029  RH  091%=      5-min Rain = 0
KAMH 091635Z 31002KT M01/M03 A3038 RMK A01 T10131030  RH  089%=      5-min Rain = 0
KAMH 091640Z 31002KT M01/M03 A3038 RMK A01 T10121030  RH  089%=      5-min Rain = 0
KAMH 091645Z 30002KT M01/M03 A3038 RMK A01 T10101029  RH  088%=      5-min Rain = 0
KAMH 091650Z 31001KT M01/M03 A3038 RMK A01 T10071026  RH  087%=      5-min Rain = 0
KAMH 091655Z 32001KT M01/M03 A3038 RMK A01 T10051026  RH  086%=      5-min Rain = 0
KAMH 091700Z 32001KT M00/M02 A3038 RMK A01 T10011024  RH  085%=      5-min Rain = 0
KAMH 091705Z 33001KT 00/M02 A3038 RMK A01 T00041022  RH  084%=      5-min Rain = 0
KAMH 091710Z 31001KT 01/M02 A3038 RMK A01 T00061022  RH  083%=      5-min Rain = 0
KAMH 091715Z 29001KT 00/M02 A3038 RMK A01 T00041023  RH  082%=      5-min Rain = 0
KAMH 091720Z 28002KT 00/M03 A3038 RMK A01 T00011025  RH  083%=      5-min Rain = 0
KAMH 091725Z 27002KT 00/M02 A3038 RMK A01 T00031022  RH  084%=      5-min Rain = 0
KAMH 091730Z 27002KT 00/M02 A3038 RMK A01 T00041023  RH  083%=      5-min Rain = 0
KAMH 091735Z 27002KT 01/M02 A3038 RMK A01 T00071021  RH  082%=      5-min Rain = 0
KAMH 091740Z 27003KT 01/M02 A3038 RMK A01 T00071021  RH  082%=      5-min Rain = 0
KAMH 091745Z 26002KT 01/M02 A3038 RMK A01 T00091021  RH  081%=      5-min Rain = 0
KAMH 091750Z 25002KT 01/M02 A3037 RMK A01 T00121020  RH  080%=      5-min Rain = 0
KAMH 091755Z 24002KT 01/M02 A3037 RMK A01 T00141021  RH  078%=      5-min Rain = 0
KAMH 091800Z 25002KT 02/M02 A3037 RMK A01 T00181020  RH  076%=      5-min Rain = 0
KAMH 091805Z 27002KT 02/M02 A3037 RMK A01 T00191023  RH  074%=      5-min Rain = 0
KAMH 091810Z 28002KT 02/M02 A3037 RMK A01 T00221021  RH  074%=      5-min Rain = 0
KAMH 091815Z 27002KT 02/M02 A3037 RMK A01 T00221024  RH  072%=      5-min Rain = 0
KAMH 091820Z 32002KT 02/M03 A3037 RMK A01 T00221027  RH  070%=      5-min Rain = 0
KAMH 091825Z 31001KT 02/M03 A3036 RMK A01 T00231026  RH  070%=      5-min Rain = 0
KAMH 091830Z 30001KT 03/M02 A3036 RMK A01 T00271023  RH  070%=      5-min Rain = 0
KAMH 091835Z 32002KT 03/M02 A3035 RMK A01 T00291023  RH  069%=      5-min Rain = 0
KAMH 091840Z 33001KT 03/M02 A3035 RMK A01 T00291021  RH  070%=      5-min Rain = 0
KAMH 091845Z 34002KT 03/M02 A3035 RMK A01 T00281024  RH  069%=      5-min Rain = 0
KAMH 091850Z 33002KT 03/M02 A3034 RMK A01 T00281022  RH  070%=      5-min Rain = 0
KAMH 091855Z 31002KT 03/M02 A3034 RMK A01 T00301021  RH  070%=      5-min Rain = 0
KAMH 091900Z 30001KT 03/M02 A3034 RMK A01 T00331019  RH  069%=      5-min Rain = 0
KAMH 091905Z 26002KT 04/M02 A3034 RMK A01 T00361019  RH  068%=      5-min Rain = 0
KAMH 091910Z 25002KT 03/M02 A3034 RMK A01 T00331023  RH  067%=      5-min Rain = 0
KAMH 091915Z 26001KT 04/M02 A3034 RMK A01 T00351021  RH  067%=      5-min Rain = 0
KAMH 091920Z 24002KT 04/M02 A3034 RMK A01 T00391020  RH  066%=      5-min Rain = 0
KAMH 091925Z 24002KT 04/M02 A3034 RMK A01 T00371023  RH  065%=      5-min Rain = 0
KAMH 091930Z 23002KT 04/M03 A3034 RMK A01 T00391025  RH  064%=      5-min Rain = 0
KAMH 091935Z 25001KT 05/M03 A3034 RMK A01 T00481025  RH  059%=      5-min Rain = 0
KAMH 091940Z 26000KT 06/M03 A3034 RMK A01 T00591026  RH  055%=      5-min Rain = 0
KAMH 091945Z 33001KT 06/M03 A3033 RMK A01 T00561034  RH  052%=      5-min Rain = 0
KAMH 091950Z 34001KT 05/M03 A3033 RMK A01 T00461033  RH  057%=      5-min Rain = 0
KAMH 091955Z 35001KT 04/M03 A3033 RMK A01 T00441031  RH  058%=      5-min Rain = 0
KAMH 092000Z 35002KT 04/M03 A3033 RMK A01 T00421029  RH  060%=      5-min Rain = 0
KAMH 092005Z 33001KT 04/M04 A3033 RMK A01 T00431036  RH  057%=      5-min Rain = 0
KAMH 092010Z 28001KT 05/M04 A3033 RMK A01 T00461037  RH  055%=      5-min Rain = 0
KAMH 092015Z 27002KT 05/M03 A3032 RMK A01 T00491032  RH  056%=      5-min Rain = 0
KAMH 092020Z 31002KT 05/M04 A3032 RMK A01 T00481043  RH  052%=      5-min Rain = 0
KAMH 092025Z 30002KT 05/M04 A3032 RMK A01 T00461044  RH  052%=      5-min Rain = 0
KAMH 092030Z 30002KT 05/M05 A3032 RMK A01 T00481045  RH  051%=      5-min Rain = 0
KAMH 092035Z 29002KT 05/M04 A3032 RMK A01 T00501043  RH  051%=      5-min Rain = 0
KAMH 092040Z 30002KT 05/M05 A3032 RMK A01 T00501046  RH  050%=      5-min Rain = 0
KAMH 092045Z 31002KT 05/M04 A3032 RMK A01 T00491042  RH  052%=      5-min Rain = 0
KAMH 092050Z 33002KT 05/M04 A3032 RMK A01 T00491042  RH  052%=      5-min Rain = 0
KAMH 092055Z 35002KT 05/M05 A3032 RMK A01 T00481045  RH  051%=      5-min Rain = 0
KAMH 092100Z 36002KT 05/M05 A3032 RMK A01 T00471046  RH  051%=      5-min Rain = 0
KAMH 092105Z 00003KT 05/M04 A3032 RMK A01 T00481040  RH  053%=      5-min Rain = 0
KAMH 092110Z 35002KT 05/M05 A3032 RMK A01 T00481045  RH  051%=      5-min Rain = 0
KAMH 092115Z 32001KT 05/M05 A3032 RMK A01 T00491045  RH  051%=      5-min Rain = 0
KAMH 092120Z 29001KT 05/M04 A3033 RMK A01 T00521041  RH  052%=      5-min Rain = 0
KAMH 092125Z 25002KT 05/M04 A3033 RMK A01 T00521041  RH  051%=      5-min Rain = 0
KAMH 092130Z 26001KT 06/M04 A3033 RMK A01 T00551043  RH  050%=      5-min Rain = 0
KAMH 092135Z 25001KT 06/M04 A3032 RMK A01 T00571040  RH  050%=      5-min Rain = 0
KAMH 092140Z 24001KT 06/M04 A3032 RMK A01 T00591042  RH  048%=      5-min Rain = 0
KAMH 092145Z 18000KT 07/M04 A3032 RMK A01 T00721040  RH  045%=      5-min Rain = 0
KAMH 092150Z 18001KT 08/M05 A3032 RMK A01 T00751047  RH  042%=      5-min Rain = 0
KAMH 092155Z 14001KT 07/M05 A3032 RMK A01 T00691049  RH  043%=      5-min Rain = 0
KAMH 092200Z 10001KT 06/M05 A3032 RMK A01 T00641047  RH  045%=      5-min Rain = 0
KAMH 092205Z 13003KT 06/M04 A3031 RMK A01 T00571042  RH  049%=      5-min Rain = 0
KAMH 092210Z 14002KT 06/M04 A3032 RMK A01 T00561041  RH  050%=      5-min Rain = 0
KAMH 092215Z 16002KT 06/M04 A3032 RMK A01 T00571038  RH  051%=      5-min Rain = 0
KAMH 092220Z 17002KT 06/M04 A3032 RMK A01 T00571041  RH  050%=      5-min Rain = 0
KAMH 092225Z 19003KT 06/M04 A3032 RMK A01 T00571041  RH  050%=      5-min Rain = 0
KAMH 092230Z 18003KT 05/M04 A3032 RMK A01 T00531036  RH  053%=      5-min Rain = 0
KAMH 092235Z 17002KT 06/M04 A3032 RMK A01 T00561037  RH  052%=      5-min Rain = 0
KAMH 092240Z 17001KT 06/M04 A3032 RMK A01 T00581041  RH  049%=      5-min Rain = 0
KAMH 092245Z 11001KT 06/M04 A3032 RMK A01 T00621038  RH  049%=      5-min Rain = 0
KAMH 092250Z 10002KT 05/M04 A3032 RMK A01 T00541044  RH  049%=      5-min Rain = 0
KAMH 092255Z 13003KT 05/M04 A3032 RMK A01 T00511041  RH  052%=      5-min Rain = 0
KAMH 092300Z 15003KT 05/M04 A3032 RMK A01 T00501041  RH  052%=      5-min Rain = 0
KAMH 092305Z 17005KT 04/M03 A3032 RMK A01 T00441034  RH  057%=      5-min Rain = 0
KAMH 092310Z 16005KT 04/M03 A3032 RMK A01 T00401034  RH  059%=      5-min Rain = 0
KAMH 092315Z 16004KT 04/M03 A3032 RMK A01 T00401034  RH  059%=      5-min Rain = 0
KAMH 092320Z 17004KT 04/M03 A3032 RMK A01 T00361034  RH  060%=      5-min Rain = 0
KAMH 092325Z 17004KT 03/M03 A3032 RMK A01 T00301033  RH  064%=      5-min Rain = 0
KAMH 092330Z 18005KT 03/M03 A3032 RMK A01 T00251033  RH  066%=      5-min Rain = 0
KAMH 092335Z 18005KT 02/M03 A3032 RMK A01 T00201032  RH  069%=      5-min Rain = 0
KAMH 092340Z 19006KT 02/M03 A3032 RMK A01 T00181028  RH  072%=      5-min Rain = 0
KAMH 092345Z 19007KT 02/M02 A3032 RMK A01 T00191024  RH  074%=      5-min Rain = 0
KAMH 092350Z 19007KT 02/M02 A3032 RMK A01 T00181021  RH  076%=      5-min Rain = 0
KAMH 092355Z 18007KT 02/M02 A3032 RMK A01 T00151021  RH  078%=      5-min Rain = 0
KAMH 100000Z 19007KT 01/M02 A3032 RMK A01 T00091022  RH  080%=      5-min Rain = 0
KAMH 100005Z 19007KT 01/M02 A3032 RMK A01 T00081022  RH  081%=      5-min Rain = 0
KAMH 100010Z 17004KT 00/M02 A3032 RMK A01 T00041024  RH  082%=      5-min Rain = 0
KAMH 100015Z 17004KT M00/M03 A3033 RMK A01 T10021027  RH  084%=      5-min Rain = 0
KAMH 100020Z 19005KT M00/M03 A3033 RMK A01 T10041027  RH  085%=      5-min Rain = 0
KAMH 100025Z 19006KT M01/M03 A3033 RMK A01 T10051027  RH  086%=      5-min Rain = 0
KAMH 100030Z 20006KT M00/M03 A3033 RMK A01 T10021026  RH  084%=      5-min Rain = 0
KAMH 100035Z 20006KT 00/M03 A3033 RMK A01 T00031026  RH  082%=      5-min Rain = 0
KAMH 100040Z 21005KT 01/M03 A3033 RMK A01 T00051026  RH  080%=      5-min Rain = 0
KAMH 100045Z 21003KT 00/M03 A3033 RMK A01 T00041028  RH  080%=      5-min Rain = 0
KAMH 100050Z 20002KT 00/M03 A3033 RMK A01 T00021029  RH  080%=      5-min Rain = 0
KAMH 100055Z 19002KT 00/03 A3033 RMK A01 T00000-29  RH  081%=      5-min Rain = 0
KAMH 100100Z 19002KT M00/M03 A3033 RMK A01 T10031031  RH  082%=      5-min Rain = 0
KAMH 100105Z 19001KT M01/M03 A3034 RMK A01 T10071031  RH  084%=      5-min Rain = 0
KAMH 100110Z 20000KT M01/M03 A3034 RMK A01 T10101031  RH  086%=      5-min Rain = 0
KAMH 100115Z 22002KT M01/M03 A3034 RMK A01 T10141033  RH  087%=      5-min Rain = 0
KAMH 100120Z 21001KT M01/M03 A3034 RMK A01 T10111029  RH  088%=      5-min Rain = 0
KAMH 100125Z 20000KT M01/M03 A3034 RMK A01 T10121033  RH  086%=      5-min Rain = 0
KAMH 100130Z 23001KT M01/M03 A3035 RMK A01 T10111030  RH  087%=      5-min Rain = 0
KAMH 100135Z 23002KT M01/M03 A3035 RMK A01 T10071028  RH  086%=      5-min Rain = 0
KAMH 100140Z 24003KT M01/M03 A3035 RMK A01 T10091031  RH  085%=      5-min Rain = 0
KAMH 100145Z 25004KT M02/M04 A3035 RMK A01 T10191039  RH  086%=      5-min Rain = 0
KAMH 100150Z 25005KT M02/M04 A3035 RMK A01 T10211036  RH  089%=      5-min Rain = 0
KAMH 100155Z 25006KT M02/M04 A3035 RMK A01 T10231039  RH  089%=      5-min Rain = 0
KAMH 100200Z 25006KT M03/M04 A3036 RMK A01 T10251040  RH  090%=      5-min Rain = 0
KAMH 100205Z 25006KT M02/M04 A3036 RMK A01 T10221035  RH  091%=      5-min Rain = 0
KAMH 100210Z 27006KT M03/M04 A3036 RMK A01 T10271042  RH  090%=      5-min Rain = 0
KAMH 100215Z 27006KT M03/M05 A3037 RMK A01 T10331046  RH  091%=      5-min Rain = 0
KAMH 100220Z 26006KT M03/M04 A3037 RMK A01 T10301040  RH  094%=      5-min Rain = 0
KAMH 100225Z 25005KT M02/M03 A3037 RMK A01 T10211030  RH  094%=      5-min Rain = 0
KAMH 100230Z 26005KT M02/M04 A3037 RMK A01 T10221036  RH  091%=      5-min Rain = 0
KAMH 100235Z 26005KT M03/M04 A3037 RMK A01 T10261040  RH  091%=      5-min Rain = 0
KAMH 100240Z 27005KT M03/M04 A3037 RMK A01 T10261038  RH  092%=      5-min Rain = 0
KAMH 100245Z 28004KT M03/M05 A3037 RMK A01 T10331046  RH  091%=      5-min Rain = 0
KAMH 100250Z 29004KT M04/M05 A3037 RMK A01 T10351046  RH  093%=      5-min Rain = 0
KAMH 100255Z 30003KT M04/M05 A3037 RMK A01 T10381049  RH  092%=      5-min Rain = 0
KAMH 100300Z 32003KT M04/M05 A3037 RMK A01 T10391049  RH  093%=      5-min Rain = 0
KAMH 100305Z 30004KT M04/M05 A3037 RMK A01 T10381047  RH  094%=      5-min Rain = 0
KAMH 100310Z 29005KT M04/M05 A3037 RMK A01 T10361045  RH  094%=      5-min Rain = 0
KAMH 100315Z 29005KT M04/M04 A3037 RMK A01 T10351044  RH  094%=      5-min Rain = 0
KAMH 100320Z 30006KT M04/M04 A3037 RMK A01 T10351044  RH  094%=      5-min Rain = 0
KAMH 100325Z 31006KT M04/M05 A3037 RMK A01 T10371047  RH  093%=      5-min Rain = 0
KAMH 100330Z 32003KT M04/M05 A3037 RMK A01 T10411052  RH  093%=      5-min Rain = 0
KAMH 100335Z 32006KT M04/M05 A3037 RMK A01 T10421052  RH  093%=      5-min Rain = 0
KAMH 100340Z 32007KT M04/M05 A3037 RMK A01 T10421051  RH  094%=      5-min Rain = 0
KAMH 100345Z 32007KT M04/M05 A3037 RMK A01 T10411050  RH  094%=      5-min Rain = 0
KAMH 100350Z 31006KT M04/M05 A3038 RMK A01 T10421050  RH  094%=      5-min Rain = 0
KAMH 100355Z 31004KT M04/M05 A3038 RMK A01 T10441053  RH  094%=      5-min Rain = 0
KAMH 100400Z 31003KT M05/M06 A3038 RMK A01 T10471057  RH  093%=      5-min Rain = 0
KAMH 100405Z 30003KT M05/M06 A3038 RMK A01 T10491058  RH  093%=      5-min Rain = 0
KAMH 100410Z 29005KT M05/M06 A3038 RMK A01 T10521062  RH  093%=      5-min Rain = 0
KAMH 100415Z 28006KT M05/M06 A3038 RMK A01 T10501058  RH  094%=      5-min Rain = 0
KAMH 100420Z 27007KT M05/M05 A3038 RMK A01 T10451052  RH  095%=      5-min Rain = 0
KAMH 100425Z 26006KT M04/M05 A3038 RMK A01 T10441051  RH  095%=      5-min Rain = 0
KAMH 100430Z 25006KT M04/M05 A3038 RMK A01 T10421051  RH  094%=      5-min Rain = 0
KAMH 100435Z 25006KT M04/M05 A3038 RMK A01 T10361046  RH  094%=      5-min Rain = 0
KAMH 100440Z 25006KT M03/M05 A3038 RMK A01 T10331046  RH  091%=      5-min Rain = 0
KAMH 100445Z 26006KT M03/M05 A3038 RMK A01 T10341049  RH  090%=      5-min Rain = 0
KAMH 100450Z 26006KT M04/M05 A3038 RMK A01 T10361052  RH  089%=      5-min Rain = 0
KAMH 100455Z 26005KT M04/M05 A3038 RMK A01 T10381053  RH  089%=      5-min Rain = 0
KAMH 100500Z 25005KT M04/M06 A3038 RMK A01 T10391055  RH  089%=      5-min Rain = 0
KAMH 100505Z 26006KT M04/M05 A3038 RMK A01 T10401054  RH  090%=      5-min Rain = 0
KAMH 100510Z 25007KT M04/M05 A3038 RMK A01 T10351048  RH  091%=      5-min Rain = 0
KAMH 100515Z 25008KT M03/M04 A3037 RMK A01 T10301044  RH  090%=      5-min Rain = 0
KAMH 100520Z 25008KT M03/M04 A3037 RMK A01 T10271043  RH  089%=      5-min Rain = 0
KAMH 100525Z 25006KT M03/M04 A3038 RMK A01 T10281044  RH  089%=      5-min Rain = 0
KAMH 100530Z 26005KT M03/M05 A3038 RMK A01 T10321048  RH  089%=      5-min Rain = 0
KAMH 100535Z 26007KT M04/M05 A3038 RMK A01 T10351049  RH  090%=      5-min Rain = 0
KAMH 100540Z 26007KT M04/M05 A3038 RMK A01 T10351048  RH  091%=      5-min Rain = 0
KAMH 100545Z 27008KT M04/M05 A3038 RMK A01 T10351048  RH  091%=      5-min Rain = 0
KAMH 100550Z 27008KT M03/M05 A3037 RMK A01 T10341047  RH  091%=      5-min Rain = 0
KAMH 100555Z 28007KT M03/M05 A3037 RMK A01 T10341047  RH  091%=      5-min Rain = 0

Page generated in 0.0211 seconds.